Time;durP1;ratioP1;P1;durP2;ratioP2;P2;SDS_P1;SDS_P2;PMS_P1;PMS_P2;Temp;Humidity;BMP_temperature;BMP_pressure;BME280_temperature;BME280_humidity;BME280_pressure;Samples;Min_cycle;Max_cycle;Signal;HPM_P1;HPM_P2
2021/01/12 00:00:18;;;;;;;;;;;;;;;28.95;24.27;100908.00;5099637;28;881;-35
2021/01/12 00:02:43;;;;;;;;;;;;;;;29.13;24.29;100914.06;5099678;28;715;-35
2021/01/12 00:05:08;;;;;;;;;;;;;;;28.82;24.46;100906.00;5099629;28;771;-32
2021/01/12 00:07:34;;;;;;;;;;;;;;;28.77;24.45;100880.50;5099736;28;925;-33
2021/01/12 00:09:59;;;;;;;;;;;;;;;28.98;24.54;100860.75;5099223;28;890;-36
2021/01/12 00:12:25;;;;;;;;;;;;;;;29.16;24.17;100860.31;5099496;28;1905;-47
2021/01/12 00:14:50;;;;;;;;;;;;;;;28.93;24.47;100877.56;5099518;28;802;-37
2021/01/12 00:17:15;;;;;;;;;;;;;;;28.68;24.73;100880.63;5098880;28;1087;-33
2021/01/12 00:19:41;;;;;;;;;;;;;;;28.79;24.80;100882.00;5099150;28;731;-32
2021/01/12 00:22:14;;;;;;;;;;;;;;;29.05;24.46;100887.91;5092261;28;949;-33
2021/01/12 00:24:40;;;;;;;;;;;;;;;29.12;24.49;100877.13;5078099;28;1087;-35
2021/01/12 00:27:05;;;;;;;;;;;;;;;28.82;24.90;100869.94;5079112;28;822;-36
2021/01/12 00:29:31;;;;;;;;;;;;;;;28.69;25.24;100855.25;5079019;28;843;-36
2021/01/12 00:31:57;;;;;;;;;;;;;;;29.16;24.28;100848.66;5078440;28;1977;-33
2021/01/12 00:34:22;;;;;;;;;;;;;;;29.28;24.16;100840.84;5079235;28;811;-45
2021/01/12 00:36:49;;;;;;;;;;;;;;;28.93;24.68;100834.22;5083235;28;1150;-35
2021/01/12 00:39:15;;;;;;;;;;;;;;;28.57;25.65;100833.25;5098809;28;772;-42
2021/01/12 00:41:40;;;;;;;;;;;;;;;28.94;24.95;100840.50;5098888;28;1068;-33
2021/01/12 00:44:05;;;;;;;;;;;;;;;29.04;24.80;100851.88;5099245;28;770;-43
2021/01/12 00:46:31;;;;;;;;;;;;;;;28.95;24.96;100856.53;5098408;28;780;-33
2021/01/12 00:48:56;;;;;;;;;;;;;;;28.76;24.98;100851.78;5098590;28;819;-39
2021/01/12 00:51:30;;;;;;;;;;;;;;;28.90;25.30;100861.69;5098687;28;1012;-43
2021/01/12 00:53:56;;;;;;;;;;;;;;;29.20;24.76;100856.19;5098643;28;1898;-44
2021/01/12 00:56:21;;;;;;;;;;;;;;;29.24;24.85;100848.50;5098380;28;827;-36
2021/01/12 00:58:46;;;;;;;;;;;;;;;28.79;25.31;100849.53;5098626;28;768;-39
2021/01/12 01:01:12;;;;;;;;;;;;;;;28.68;25.53;100853.56;5098581;28;835;-32
2021/01/12 01:03:37;;;;;;;;;;;;;;;29.06;24.73;100847.09;5098172;28;786;-32
2021/01/12 01:06:05;;;;;;;;;;;;;;;29.27;24.61;100841.84;5098494;28;768;-43
2021/01/12 01:08:31;;;;;;;;;;;;;;;28.97;25.23;100850.97;5098342;28;949;-32
2021/01/12 01:10:56;;;;;;;;;;;;;;;28.75;25.38;100844.66;5097819;28;804;-33
2021/01/12 01:13:22;;;;;;;;;;;;;;;28.87;25.09;100826.03;5098151;28;1953;-43
2021/01/12 01:15:48;;;;;;;;;;;;;;;29.23;24.82;100816.19;5098386;28;810;-35
2021/01/12 01:18:13;;;;;;;;;;;;;;;29.31;24.68;100814.16;5098000;28;1141;-35
2021/01/12 01:20:38;;;;;;;;;;;;;;;28.88;25.34;100809.59;5098087;28;819;-32
2021/01/12 01:23:04;;;;;;;;;;;;;;;28.85;24.96;100813.53;5082754;28;961;-35
2021/01/12 01:25:29;;;;;;;;;;;;;;;29.06;24.78;100813.78;5077107;28;1071;-36
2021/01/12 01:27:54;;;;;;;;;;;;;;;29.27;24.83;100804.78;5076803;28;851;-36
2021/01/12 01:30:20;;;;;;;;;;;;;;;28.94;25.16;100798.03;5077801;28;826;-34
2021/01/12 01:32:45;;;;;;;;;;;;;;;28.81;25.15;100793.28;5077727;28;1973;-40
2021/01/12 01:35:11;;;;;;;;;;;;;;;28.88;25.47;100784.41;5077506;28;834;-36
2021/01/12 01:37:36;;;;;;;;;;;;;;;29.21;24.62;100773.88;5077519;28;977;-36
2021/01/12 01:40:02;;;;;;;;;;;;;;;29.11;25.04;100769.84;5077248;28;827;-35
2021/01/12 01:42:28;;;;;;;;;;;;;;;28.87;25.06;100756.50;5077518;28;799;-33
2021/01/12 01:44:53;;;;;;;;;;;;;;;28.83;25.33;100753.34;5077511;28;807;-46
2021/01/12 01:47:18;;;;;;;;;;;;;;;29.13;24.89;100754.25;5077114;28;814;-33
2021/01/12 01:49:43;;;;;;;;;;;;;;;29.23;24.78;100749.28;5075928;28;882;-33
2021/01/12 01:52:09;;;;;;;;;;;;;;;28.79;25.58;100734.97;5084668;28;2050;-36
2021/01/12 01:54:34;;;;;;;;;;;;;;;28.63;25.71;100736.91;5097128;28;839;-41
2021/01/12 01:56:59;;;;;;;;;;;;;;;29.05;24.97;100737.09;5097756;28;763;-34
2021/01/12 01:59:24;;;;;;;;;;;;;;;29.23;24.92;100727.63;5097347;28;498;-45
2021/01/12 02:01:50;;;;;;;;;;;;;;;28.84;25.60;100727.09;5096990;28;771;-36
2021/01/12 02:04:20;;;;;;;;;;;;;;;28.75;25.09;100731.81;5097501;28;802;-33
2021/01/12 02:06:46;;;;;;;;;;;;;;;29.05;25.04;100760.63;5095998;28;954;-34
2021/01/12 02:09:14;;;;;;;;;;;;;;;29.24;24.47;100772.66;5095729;28;822;-35
2021/01/12 02:11:40;;;;;;;;;;;;;;;28.98;25.04;100776.81;5096123;28;1968;-34
2021/01/12 02:14:06;;;;;;;;;;;;;;;28.66;25.50;100771.69;5097257;28;826;-34
2021/01/12 02:16:31;;;;;;;;;;;;;;;28.84;25.41;100765.81;5095786;28;1106;-33
2021/01/12 02:18:56;;;;;;;;;;;;;;;29.14;24.88;100745.91;5096030;28;803;-43
2021/01/12 02:21:22;;;;;;;;;;;;;;;29.00;25.08;100742.25;5096240;28;1012;-31
2021/01/12 02:23:47;;;;;;;;;;;;;;;28.64;25.42;100727.78;5076356;28;1261;-38
2021/01/12 02:26:12;;;;;;;;;;;;;;;28.76;25.52;100711.81;5076856;28;768;-34
2021/01/12 02:28:37;;;;;;;;;;;;;;;29.03;25.14;100695.00;5076527;28;945;-36
2021/01/12 02:31:03;;;;;;;;;;;;;;;29.24;25.00;100704.09;5076271;28;767;-36
2021/01/12 02:33:28;;;;;;;;;;;;;;;28.82;25.31;100710.22;5076632;28;1977;-36
2021/01/12 02:35:54;;;;;;;;;;;;;;;28.27;25.18;100710.72;5075610;28;815;-37
2021/01/12 02:38:19;;;;;;;;;;;;;;;28.59;25.17;100720.22;5093151;28;958;-37
2021/01/12 02:40:44;;;;;;;;;;;;;;;28.90;24.67;100730.88;5094457;28;1093;-45
2021/01/12 02:43:09;;;;;;;;;;;;;;;28.64;25.65;100727.78;5096953;28;771;-35
2021/01/12 02:45:35;;;;;;;;;;;;;;;28.46;25.35;100725.53;5096256;28;855;-33
2021/01/12 02:48:00;;;;;;;;;;;;;;;28.91;24.78;100725.28;5097159;28;775;-34
2021/01/12 02:50:25;;;;;;;;;;;;;;;29.03;24.73;100732.91;5096410;28;871;-40
2021/01/12 02:52:51;;;;;;;;;;;;;;;28.82;24.96;100743.56;5095980;28;1976;-33
2021/01/12 02:55:16;;;;;;;;;;;;;;;28.54;25.43;100743.50;5096686;28;847;-34
2021/01/12 02:57:41;;;;;;;;;;;;;;;28.82;24.94;100757.09;5096213;28;810;-35
2021/01/12 03:00:08;;;;;;;;;;;;;;;29.06;24.84;100767.72;5096040;28;815;-34
2021/01/12 03:02:33;;;;;;;;;;;;;;;28.98;24.91;100776.00;5096687;28;851;-33
2021/01/12 03:04:58;;;;;;;;;;;;;;;28.62;25.55;100778.53;5096702;28;795;-34
2021/01/12 03:07:24;;;;;;;;;;;;;;;28.81;25.44;100770.81;5096022;28;1004;-37
2021/01/12 03:09:49;;;;;;;;;;;;;;;29.11;24.66;100759.00;5096630;28;787;-35
2021/01/12 03:12:14;;;;;;;;;;;;;;;29.23;24.92;100751.19;5096329;28;1898;-30
2021/01/12 03:14:41;;;;;;;;;;;;;;;28.77;25.25;100742.44;5096293;28;846;-33
2021/01/12 03:17:08;;;;;;;;;;;;;;;28.64;25.66;100738.59;5096083;28;1106;-36
2021/01/12 03:19:33;;;;;;;;;;;;;;;28.95;24.98;100733.84;5096315;28;739;-34
2021/01/12 03:21:58;;;;;;;;;;;;;;;29.21;24.95;100741.38;5090398;28;945;-32
2021/01/12 03:24:24;;;;;;;;;;;;;;;28.83;25.26;100723.56;5075734;28;1109;-41
2021/01/12 03:26:49;;;;;;;;;;;;;;;28.65;25.61;100704.22;5076162;28;779;-37
2021/01/12 03:29:14;;;;;;;;;;;;;;;28.93;25.09;100695.28;5076196;28;791;-33
2021/01/12 03:31:39;;;;;;;;;;;;;;;29.02;25.01;100705.00;5075727;28;1914;-35
2021/01/12 03:34:05;;;;;;;;;;;;;;;28.88;25.21;100700.50;5075818;28;735;-32
2021/01/12 03:36:30;;;;;;;;;;;;;;;28.63;25.82;100703.63;5077930;28;985;-37
2021/01/12 03:38:55;;;;;;;;;;;;;;;28.67;25.74;100705.72;5095685;28;822;-45
2021/01/12 03:41:20;;;;;;;;;;;;;;;28.95;24.93;100709.47;5096183;28;838;-35
2021/01/12 03:43:46;;;;;;;;;;;;;;;28.96;24.96;100703.03;5095947;28;858;-31
2021/01/12 03:46:11;;;;;;;;;;;;;;;28.65;25.70;100704.22;5095919;28;791;-35
2021/01/12 03:48:36;;;;;;;;;;;;;;;28.63;25.81;100712.56;5095895;28;850;-35
2021/01/12 03:51:02;;;;;;;;;;;;;;;28.98;24.96;100727.25;5097621;28;766;-36
2021/01/12 03:53:27;;;;;;;;;;;;;;;29.12;24.99;100714.63;5099011;28;1901;-35
2021/01/12 03:55:52;;;;;;;;;;;;;;;28.82;25.31;100705.66;5099871;28;794;-44
2021/01/12 03:58:18;;;;;;;;;;;;;;;28.65;25.75;100686.13;5099930;28;830;-35
2021/01/12 04:00:44;;;;;;;;;;;;;;;29.04;24.73;100675.00;5099447;28;806;-34
2021/01/12 04:03:09;;;;;;;;;;;;;;;29.27;24.65;100655.75;5099763;28;775;-34
2021/01/12 04:05:34;;;;;;;;;;;;;;;29.05;25.12;100644.16;5099854;28;826;-43
2021/01/12 04:08:00;;;;;;;;;;;;;;;28.69;25.47;100633.31;5099102;28;1016;-33
2021/01/12 04:10:25;;;;;;;;;;;;;;;28.92;25.40;100632.19;5099729;28;901;-41
2021/01/12 04:12:50;;;;;;;;;;;;;;;28.80;25.43;100644.59;5099454;28;1982;-41
2021/01/12 04:15:16;;;;;;;;;;;;;;;28.98;25.54;100627.06;5099165;28;771;-39
2021/01/12 04:17:41;;;;;;;;;;;;;;;28.64;25.90;100629.50;5099761;28;1134;-34
2021/01/12 04:20:06;;;;;;;;;;;;;;;28.69;25.63;100636.00;5099118;28;1193;-35
2021/01/12 04:22:32;;;;;;;;;;;;;;;29.05;25.04;100641.47;5095649;28;1281;-33
2021/01/12 04:24:57;;;;;;;;;;;;;;;28.50;24.51;100650.19;5099210;28;1120;-38
2021/01/12 04:27:22;;;;;;;;;;;;;;;27.96;24.97;100658.59;5099187;28;818;-33
2021/01/12 04:29:47;;;;;;;;;;;;;;;27.82;25.54;100641.38;5099036;28;799;-39
2021/01/12 04:32:13;;;;;;;;;;;;;;;28.14;25.54;100638.41;5099186;28;1917;-34
2021/01/12 04:34:38;;;;;;;;;;;;;;;28.57;24.92;100634.84;5099070;28;811;-41
2021/01/12 04:37:03;;;;;;;;;;;;;;;28.35;25.04;100627.59;5098615;28;969;-35
2021/01/12 04:39:29;;;;;;;;;;;;;;;28.44;24.95;100641.84;5099130;28;763;-38
2021/01/12 04:41:54;;;;;;;;;;;;;;;28.94;24.60;100653.66;5098893;28;869;-46
2021/01/12 04:44:19;;;;;;;;;;;;;;;29.27;23.85;100650.34;5099042;28;835;-35
2021/01/12 04:46:45;;;;;;;;;;;;;;;28.98;24.53;100654.13;5098748;28;865;-36
2021/01/12 04:49:10;;;;;;;;;;;;;;;27.72;22.74;100656.06;5098802;28;776;-45
2021/01/12 04:51:35;;;;;;;;;;;;;;;24.38;27.54;100661.63;5098215;28;966;-45
2021/01/12 04:54:00;;;;;;;;;;;;;;;25.71;27.05;100661.44;5097430;28;1910;-48
2021/01/12 04:56:26;;;;;;;;;;;;;;;25.61;27.68;100648.16;5098943;28;775;-33
2021/01/12 04:58:51;;;;;;;;;;;;;;;25.47;27.25;100636.28;5098482;28;736;-41
2021/01/12 05:01:17;;;;;;;;;;;;;;;27.19;25.38;100629.16;5098681;28;1550;-32
2021/01/12 05:03:49;;;;;;;;;;;;;;;27.55;24.58;100633.78;5097648;28;730;-31
2021/01/12 05:06:14;;;;;;;;;;;;;;;26.86;24.49;100627.63;5098335;28;811;-31
2021/01/12 05:08:41;;;;;;;;;;;;;;;26.21;25.78;100619.91;5098516;28;795;-30
2021/01/12 05:11:06;;;;;;;;;;;;;;;26.69;25.26;100625.09;5098298;28;832;-39
2021/01/12 05:13:31;;;;;;;;;;;;;;;27.24;24.76;100629.44;5096894;28;1902;-32
2021/01/12 05:15:57;;;;;;;;;;;;;;;25.87;27.50;100620.13;5097460;28;768;-34
2021/01/12 05:18:22;;;;;;;;;;;;;;;25.60;28.10;100603.38;5096743;28;1202;-33
2021/01/12 05:20:48;;;;;;;;;;;;;;;25.49;28.21;100585.75;5096798;28;1293;-32
2021/01/12 05:23:14;;;;;;;;;;;;;;;25.57;28.36;100576.81;5081262;28;950;-30
2021/01/12 05:25:39;;;;;;;;;;;;;;;25.63;28.27;100576.13;5083605;28;1178;-32
2021/01/12 05:28:09;;;;;;;;;;;;;;;25.47;28.75;100552.78;5097197;28;829;-38
2021/01/12 05:30:34;;;;;;;;;;;;;;;25.33;28.92;100532.81;5098244;28;726;-34
2021/01/12 05:33:00;;;;;;;;;;;;;;;25.51;28.74;100529.88;5097468;28;1980;-31
2021/01/12 05:35:31;;;;;;;;;;;;;;;25.40;29.03;100511.41;5098282;28;813;-38
2021/01/12 05:38:01;;;;;;;;;;;;;;;25.35;29.03;100511.09;5097712;28;949;-33
2021/01/12 05:40:28;;;;;;;;;;;;;;;25.22;29.29;100515.22;5098368;28;749;-36
2021/01/12 05:43:02;;;;;;;;;;;;;;;25.29;29.25;100542.28;5097165;28;858;-39
2021/01/12 05:45:32;;;;;;;;;;;;;;;25.55;28.93;100538.44;5096123;28;803;-34
2021/01/12 05:47:57;;;;;;;;;;;;;;;25.15;29.48;100542.00;5097738;28;873;-39
2021/01/12 05:50:22;;;;;;;;;;;;;;;25.06;29.46;100543.03;5097480;28;763;-33
2021/01/12 05:52:52;;;;;;;;;;;;;;;25.03;29.74;100546.91;5095783;28;1910;-30
2021/01/12 05:55:17;;;;;;;;;;;;;;;25.12;29.65;100558.50;5097314;28;847;-38
2021/01/12 05:57:42;;;;;;;;;;;;;;;25.16;29.66;100577.81;5095804;28;862;-32
2021/01/12 06:00:08;;;;;;;;;;;;;;;25.01;29.98;100572.31;5096197;28;830;-35
2021/01/12 06:02:33;;;;;;;;;;;;;;;25.02;29.83;100544.41;5097463;28;836;-33
2021/01/12 06:04:59;;;;;;;;;;;;;;;25.15;29.70;100533.94;5096978;28;722;-43
2021/01/12 06:07:24;;;;;;;;;;;;;;;25.10;29.81;100554.28;5095328;28;1039;-34
2021/01/12 06:09:50;;;;;;;;;;;;;;;25.07;29.92;100577.84;5097089;28;879;-33
2021/01/12 06:12:15;;;;;;;;;;;;;;;24.99;30.12;100618.22;5095521;28;1905;-33
2021/01/12 06:14:43;;;;;;;;;;;;;;;24.93;30.20;100635.06;5096716;28;748;-39
2021/01/12 06:17:09;;;;;;;;;;;;;;;25.03;29.96;100629.50;5095896;28;1138;-41
2021/01/12 06:19:38;;;;;;;;;;;;;;;25.13;29.82;100619.38;5097100;28;866;-34
2021/01/12 06:22:16;;;;;;;;;;;;;;;24.81;30.37;100619.25;5088811;28;1009;-33
2021/01/12 06:24:44;;;;;;;;;;;;;;;24.75;30.26;100619.94;5076389;28;1292;-41
2021/01/12 06:27:09;;;;;;;;;;;;;;;25.52;29.60;100627.66;5076340;28;831;-29
2021/01/12 06:29:35;;;;;;;;;;;;;;;26.35;28.18;100623.69;5076459;28;843;-38
2021/01/12 06:32:00;;;;;;;;;;;;;;;26.40;27.83;100603.25;5087890;28;1906;-32
2021/01/12 06:34:25;;;;;;;;;;;;;;;26.39;27.95;100612.34;5096968;28;827;-35
2021/01/12 06:36:51;;;;;;;;;;;;;;;26.87;27.15;100594.19;5096654;28;1024;-35
2021/01/12 06:39:21;;;;;;;;;;;;;;;27.21;26.65;100579.31;5096654;28;825;-33
2021/01/12 06:41:46;;;;;;;;;;;;;;;27.32;26.66;100575.31;5095614;28;792;-45
2021/01/12 06:44:15;;;;;;;;;;;;;;;27.17;26.68;100559.13;5095596;28;764;-31
2021/01/12 06:46:41;;;;;;;;;;;;;;;27.26;26.58;100563.41;5095343;28;847;-43
2021/01/12 06:49:06;;;;;;;;;;;;;;;27.62;26.38;100571.72;5095342;28;747;-28
2021/01/12 06:51:37;;;;;;;;;;;;;;;27.50;26.27;100583.00;5095025;28;934;-28
2021/01/12 06:54:03;;;;;;;;;;;;;;;27.29;26.68;100578.41;5096642;28;1902;-35
2021/01/12 06:56:34;;;;;;;;;;;;;;;27.70;26.19;100582.44;5095957;28;831;-35
2021/01/12 06:59:11;;;;;;;;;;;;;;;27.89;25.91;100577.44;5095252;28;759;-28
2021/01/12 07:01:36;;;;;;;;;;;;;;;27.99;26.06;100563.59;5095480;28;870;-29
2021/01/12 07:04:02;;;;;;;;;;;;;;;27.70;26.67;100552.69;5095071;28;799;-34
2021/01/12 07:06:27;;;;;;;;;;;;;;;27.81;26.50;100548.66;5094990;28;949;-30
2021/01/12 07:08:54;;;;;;;;;;;;;;;28.15;25.78;100557.06;5096760;28;775;-32
2021/01/12 07:11:20;;;;;;;;;;;;;;;28.23;25.75;100556.94;5096495;28;815;-43
2021/01/12 07:13:45;;;;;;;;;;;;;;;27.50;26.09;100561.41;5096214;28;1971;-33
2021/01/12 07:16:14;;;;;;;;;;;;;;;27.20;26.81;100563.31;5096794;28;814;-33
2021/01/12 07:18:40;;;;;;;;;;;;;;;27.84;26.15;100567.16;5096288;28;1185;-31
2021/01/12 07:21:06;;;;;;;;;;;;;;;28.12;25.80;100562.88;5094842;28;807;-33
2021/01/12 07:23:31;;;;;;;;;;;;;;;27.99;25.99;100564.41;5077111;28;1008;-40
2021/01/12 07:26:02;;;;;;;;;;;;;;;27.86;26.11;100558.91;5086912;28;1142;-40
2021/01/12 07:28:27;;;;;;;;;;;;;;;28.22;25.74;100547.16;5099225;28;838;-30
2021/01/12 07:30:55;;;;;;;;;;;;;;;28.43;25.47;100526.53;5100219;28;767;-38
2021/01/12 07:33:21;;;;;;;;;;;;;;;28.11;26.10;100531.47;5100106;28;1911;-41
2021/01/12 07:35:47;;;;;;;;;;;;;;;27.47;26.51;100532.06;5099671;28;780;-33
2021/01/12 07:38:19;;;;;;;;;;;;;;;27.25;25.99;100545.53;5083101;28;961;-42
2021/01/12 07:40:44;;;;;;;;;;;;;;;27.95;25.78;100556.88;5079771;28;835;-40
2021/01/12 07:43:13;;;;;;;;;;;;;;;28.21;25.60;100556.28;5079654;28;858;-33
2021/01/12 07:45:38;;;;;;;;;;;;;;;27.89;25.85;100569.31;5079865;28;783;-40
2021/01/12 07:48:04;;;;;;;;;;;;;;;27.73;26.24;100554.16;5079938;28;874;-34
2021/01/12 07:50:30;;;;;;;;;;;;;;;28.21;25.71;100552.75;5078994;28;875;-38
2021/01/12 07:52:56;;;;;;;;;;;;;;;28.13;25.49;100547.50;5092905;28;1963;-33
2021/01/12 07:55:21;;;;;;;;;;;;;;;27.98;25.47;100535.72;5099873;28;827;-33
2021/01/12 07:57:48;;;;;;;;;;;;;;;27.83;25.58;100538.47;5099256;28;784;-41
2021/01/12 08:00:14;;;;;;;;;;;;;;;27.70;25.97;100532.94;5099045;28;930;-39
2021/01/12 08:02:48;;;;;;;;;;;;;;;27.10;26.79;100539.31;5099629;28;786;-37
2021/01/12 08:05:14;;;;;;;;;;;;;;;26.50;27.50;100527.47;5099138;28;961;-41
2021/01/12 08:07:39;;;;;;;;;;;;;;;26.67;27.40;100534.53;5099127;28;946;-34
2021/01/12 08:10:05;;;;;;;;;;;;;;;27.57;26.22;100542.56;5098313;28;831;-34
2021/01/12 08:12:31;;;;;;;;;;;;;;;27.70;25.85;100539.19;5099467;28;1901;-34
2021/01/12 08:15:06;;;;;;;;;;;;;;;27.51;26.23;100533.34;5099124;28;778;-33
2021/01/12 08:17:31;;;;;;;;;;;;;;;27.98;25.65;100526.75;5099370;28;1190;-34
2021/01/12 08:19:56;;;;;;;;;;;;;;;28.28;25.58;100514.94;5099325;28;724;-39
2021/01/12 08:22:27;;;;;;;;;;;;;;;28.35;24.95;100499.63;5089795;28;1012;-34
2021/01/12 08:24:52;;;;;;;;;;;;;;;27.97;25.77;100488.09;5078668;28;1107;-41
2021/01/12 08:27:18;;;;;;;;;;;;;;;27.93;25.80;100494.06;5078678;28;768;-34
2021/01/12 08:29:43;;;;;;;;;;;;;;;28.41;25.23;100476.38;5079035;28;724;-42
2021/01/12 08:32:09;;;;;;;;;;;;;;;28.59;24.84;100492.88;5084440;28;1905;-41
2021/01/12 08:34:49;;;;;;;;;;;;;;;28.13;25.37;100493.41;5097556;28;1197;-41
2021/01/12 08:37:15;;;;;;;;;;;;;;;27.79;26.16;100491.25;5097238;28;1001;-39
2021/01/12 08:39:40;;;;;;;;;;;;;;;28.37;25.22;100459.69;5098167;28;782;-36
2021/01/12 08:42:05;;;;;;;;;;;;;;;28.65;25.05;100466.06;5098367;28;845;-41
2021/01/12 08:44:33;;;;;;;;;;;;;;;28.27;25.54;100457.31;5098778;28;799;-36
2021/01/12 08:47:02;;;;;;;;;;;;;;;28.14;25.68;100447.25;5099020;28;863;-34
2021/01/12 08:49:28;;;;;;;;;;;;;;;28.46;25.50;100436.84;5098652;28;783;-36
2021/01/12 08:51:54;;;;;;;;;;;;;;;28.69;25.30;100426.75;5098237;28;1965;-36
2021/01/12 08:54:19;;;;;;;;;;;;;;;27.88;25.68;100408.16;5097474;28;830;-34
2021/01/12 08:56:53;;;;;;;;;;;;;;;26.99;26.75;100398.34;5095927;28;1040;-31
2021/01/12 08:59:25;;;;;;;;;;;;;;;26.96;26.96;100365.53;5097450;28;767;-30
2021/01/12 09:01:51;;;;;;;;;;;;;;;27.56;26.40;100351.75;5098370;28;849;-32
2021/01/12 09:04:16;;;;;;;;;;;;;;;27.76;25.66;100340.28;5097514;28;911;-43
2021/01/12 09:06:41;;;;;;;;;;;;;;;27.73;25.62;100322.59;5098301;28;945;-38
2021/01/12 09:09:11;;;;;;;;;;;;;;;27.97;25.60;100322.34;5097190;28;791;-45
2021/01/12 09:11:58;;;;;;;;;;;;;;;28.38;25.15;100309.84;5097716;28;837;-40
2021/01/12 09:14:24;;;;;;;;;;;;;;;27.93;25.43;100273.22;5098315;28;842;-45
2021/01/12 09:16:53;;;;;;;;;;;;;;;28.05;25.42;100256.44;5097276;28;981;-44
2021/01/12 09:19:18;;;;;;;;;;;;;;;28.53;25.02;100255.59;5097951;28;810;-45
2021/01/12 09:21:44;;;;;;;;;;;;;;;28.58;24.78;100249.56;5093962;28;989;-40
2021/01/12 09:24:14;;;;;;;;;;;;;;;27.43;26.14;100243.59;5093825;28;1154;-42
2021/01/12 09:26:40;;;;;;;;;;;;;;;27.33;26.31;100243.94;5098211;28;716;-34
2021/01/12 09:29:05;;;;;;;;;;;;;;;27.71;25.72;100230.09;5098416;28;830;-35
2021/01/12 09:31:31;;;;;;;;;;;;;;;27.83;25.63;100208.72;5097764;28;898;-33
2021/01/12 09:33:57;;;;;;;;;;;;;;;27.50;26.13;100214.78;5097884;28;1966;-38
2021/01/12 09:36:23;;;;;;;;;;;;;;;27.23;26.26;100217.28;5097094;28;819;-42
2021/01/12 09:38:51;;;;;;;;;;;;;;;27.21;26.80;100219.38;5097573;28;747;-34
2021/01/12 09:41:26;;;;;;;;;;;;;;;27.63;25.77;100216.72;5097015;28;932;-34
2021/01/12 09:43:52;;;;;;;;;;;;;;;27.05;26.54;100224.03;5097943;28;814;-39
2021/01/12 09:46:17;;;;;;;;;;;;;;;27.06;26.51;100235.66;5097979;28;738;-37
2021/01/12 09:48:42;;;;;;;;;;;;;;;27.04;26.54;100229.63;5096820;28;859;-41
2021/01/12 09:51:11;;;;;;;;;;;;;;;27.38;26.30;100233.38;5096895;28;1090;-32
2021/01/12 09:53:54;;;;;;;;;;;;;;;27.57;26.06;100236.41;5097130;28;2027;-37
2021/01/12 09:56:20;;;;;;;;;;;;;;;27.25;26.21;100228.72;5097285;28;755;-36
2021/01/12 09:58:45;;;;;;;;;;;;;;;27.42;26.32;100223.03;5097475;28;787;-34
2021/01/12 10:01:14;;;;;;;;;;;;;;;27.70;25.68;100223.03;5097340;28;799;-36
2021/01/12 10:03:39;;;;;;;;;;;;;;;27.77;25.93;100216.81;5097019;28;787;-42
2021/01/12 10:06:04;;;;;;;;;;;;;;;27.35;26.33;100212.19;5097284;28;798;-36
2021/01/12 10:08:31;;;;;;;;;;;;;;;27.25;26.20;100216.06;5096479;28;1066;-34
2021/01/12 10:10:56;;;;;;;;;;;;;;;27.38;26.27;100219.88;5096807;28;834;-35
2021/01/12 10:13:21;;;;;;;;;;;;;;;27.63;25.94;100222.94;5096809;28;1914;-37
2021/01/12 10:15:47;;;;;;;;;;;;;;;27.61;26.00;100214.22;5096936;28;485;-40
2021/01/12 10:18:12;;;;;;;;;;;;;;;26.51;27.25;100216.25;5096866;28;1126;-36
2021/01/12 10:20:37;;;;;;;;;;;;;;;27.10;26.90;100204.53;5096854;28;780;-35
2021/01/12 10:23:03;;;;;;;;;;;;;;;27.84;25.80;100193.34;5081256;28;957;-35
2021/01/12 10:25:28;;;;;;;;;;;;;;;28.33;24.85;100168.97;5076371;28;1165;-35
2021/01/12 10:27:55;;;;;;;;;;;;;;;28.46;24.92;100160.06;5076464;28;808;-35
2021/01/12 10:30:21;;;;;;;;;;;;;;;28.28;25.30;100144.41;5076415;28;827;-30
2021/01/12 10:32:46;;;;;;;;;;;;;;;27.80;25.63;100146.13;5076498;28;1963;-33
2021/01/12 10:35:12;;;;;;;;;;;;;;;27.63;25.58;100152.72;5076640;28;783;-35
2021/01/12 10:37:37;;;;;;;;;;;;;;;26.84;27.14;100160.91;5087885;28;969;-34
2021/01/12 10:40:03;;;;;;;;;;;;;;;27.30;26.46;100163.31;5095957;28;879;-34
2021/01/12 10:42:28;;;;;;;;;;;;;;;28.08;25.22;100156.84;5096782;28;801;-33
2021/01/12 10:44:53;;;;;;;;;;;;;;;28.32;24.87;100151.91;5096871;28;751;-33
2021/01/12 10:47:19;;;;;;;;;;;;;;;28.29;25.16;100144.19;5096439;28;752;-32
2021/01/12 10:49:44;;;;;;;;;;;;;;;28.35;24.84;100156.09;5096752;28;791;-31
2021/01/12 10:52:10;;;;;;;;;;;;;;;28.18;25.32;100145.63;5096049;28;1909;-34
2021/01/12 10:54:35;;;;;;;;;;;;;;;28.10;25.68;100130.44;5096274;28;913;-35
2021/01/12 10:57:01;;;;;;;;;;;;;;;27.82;25.80;100119.75;5096595;28;836;-36
2021/01/12 10:59:26;;;;;;;;;;;;;;;27.94;25.66;100104.63;5096525;28;841;-30
2021/01/12 11:01:55;;;;;;;;;;;;;;;28.47;25.18;100100.34;5095404;28;767;-33
2021/01/12 11:04:20;;;;;;;;;;;;;;;29.03;24.63;100108.19;5096636;28;759;-35
2021/01/12 11:06:47;;;;;;;;;;;;;;;29.00;24.70;100100.50;5096324;28;953;-33
2021/01/12 11:09:12;;;;;;;;;;;;;;;28.87;24.84;100111.31;5096075;28;814;-33
2021/01/12 11:11:38;;;;;;;;;;;;;;;28.83;25.14;100117.16;5096321;28;942;-33
2021/01/12 11:14:06;;;;;;;;;;;;;;;29.18;24.70;100128.78;5096446;28;1906;-35
2021/01/12 11:16:37;;;;;;;;;;;;;;;29.42;24.27;100129.97;5095949;28;1114;-32
2021/01/12 11:19:03;;;;;;;;;;;;;;;29.59;24.29;100121.41;5096750;28;881;-31
2021/01/12 11:21:29;;;;;;;;;;;;;;;29.29;24.57;100113.75;5094167;28;914;-33
2021/01/12 11:23:54;;;;;;;;;;;;;;;28.94;24.77;100104.88;5075909;28;1059;-32
2021/01/12 11:26:27;;;;;;;;;;;;;;;29.41;24.60;100089.56;5076123;28;783;-32
2021/01/12 11:28:52;;;;;;;;;;;;;;;29.71;24.31;100080.91;5075790;28;833;-35
2021/01/12 11:31:18;;;;;;;;;;;;;;;29.33;24.62;100090.59;5075671;28;776;-34
2021/01/12 11:33:43;;;;;;;;;;;;;;;28.73;25.63;100082.41;5075799;28;1914;-37
2021/01/12 11:36:09;;;;;;;;;;;;;;;29.21;24.96;100085.06;5076522;28;840;-35
2021/01/12 11:38:34;;;;;;;;;;;;;;;29.51;24.50;100081.78;5094912;28;966;-41
2021/01/12 11:41:00;;;;;;;;;;;;;;;29.73;24.54;100076.06;5096195;28;823;-41
2021/01/12 11:43:25;;;;;;;;;;;;;;;29.38;24.52;100068.31;5096258;28;817;-44
2021/01/12 11:45:50;;;;;;;;;;;;;;;29.20;24.84;100059.84;5095186;28;843;-35
2021/01/12 11:48:15;;;;;;;;;;;;;;;29.45;24.57;100050.97;5096226;28;847;-43
2021/01/12 11:50:41;;;;;;;;;;;;;;;29.71;24.63;100045.66;5095781;28;861;-34
2021/01/12 11:53:06;;;;;;;;;;;;;;;29.32;24.65;100040.19;5095449;28;1973;-34
2021/01/12 11:55:32;;;;;;;;;;;;;;;29.15;24.88;100053.38;5096170;28;878;-35
2021/01/12 11:57:57;;;;;;;;;;;;;;;29.46;24.70;100060.75;5096161;28;771;-40
2021/01/12 12:00:23;;;;;;;;;;;;;;;29.61;24.57;100061.56;5095658;28;771;-43
2021/01/12 12:02:48;;;;;;;;;;;;;;;29.84;24.24;100071.84;5095867;28;805;-34
2021/01/12 12:05:14;;;;;;;;;;;;;;;29.32;24.85;100078.97;5095918;28;814;-42
2021/01/12 12:07:39;;;;;;;;;;;;;;;28.66;25.29;100076.16;5095014;28;969;-35
2021/01/12 12:10:04;;;;;;;;;;;;;;;28.94;24.79;100069.69;5095877;28;759;-42
2021/01/12 12:12:30;;;;;;;;;;;;;;;28.63;25.31;100068.47;5097348;28;1961;-39
2021/01/12 12:14:55;;;;;;;;;;;;;;;28.31;25.20;100077.19;5099181;28;877;-43
2021/01/12 12:17:20;;;;;;;;;;;;;;;28.10;25.75;100075.50;5098447;28;874;-39
2021/01/12 12:19:46;;;;;;;;;;;;;;;27.84;26.60;100075.25;5099300;28;835;-46
2021/01/12 12:22:11;;;;;;;;;;;;;;;27.44;27.46;100064.31;5091243;28;969;-43
2021/01/12 12:24:36;;;;;;;;;;;;;;;27.31;27.87;100065.91;5078662;28;1280;-34
2021/01/12 12:27:02;;;;;;;;;;;;;;;27.85;26.91;100065.28;5078982;28;802;-35
2021/01/12 12:29:27;;;;;;;;;;;;;;;28.05;27.14;100073.44;5078811;28;784;-37
2021/01/12 12:31:56;;;;;;;;;;;;;;;27.94;26.40;100066.78;5078810;28;756;-33
2021/01/12 12:34:22;;;;;;;;;;;;;;;28.07;26.37;100041.63;5078372;28;1979;-36
2021/01/12 12:36:48;;;;;;;;;;;;;;;28.00;26.33;100011.03;5083333;28;970;-36
2021/01/12 12:39:13;;;;;;;;;;;;;;;27.91;26.79;99980.66;5096912;28;832;-35
2021/01/12 12:41:38;;;;;;;;;;;;;;;27.22;27.40;99968.06;5098006;28;855;-32
2021/01/12 12:44:04;;;;;;;;;;;;;;;27.36;27.28;99966.22;5098931;28;953;-31
2021/01/12 12:46:29;;;;;;;;;;;;;;;27.56;26.53;99967.31;5098868;28;747;-34
2021/01/12 12:48:55;;;;;;;;;;;;;;;27.40;26.58;99969.34;5097630;28;908;-32